ilmateenistus.ee keskkonnaagentuur.ee
EETN Tallinna lennuväli
FTEO31 EETN 211100
TAF EETN 211100Z 2112/2212 35005KT 9999 SCT014 BKN020 TEMPO 2112/2117
    2000 SHSN SCT008 SCT018CB PROB40 TEMPO 2119/2203 0700 FZFG BKN003
    BECMG 2203/2205 22009KT=

METAR EETN 211320Z 02004KT 9000 -SHSN SCT014 FEW018CB M10/M12 Q1015 R08/420295 TEMPO 3000 SHSN=
Tallinna lennuväli
EEKA Kärdla lennuväli
FCEO32 EETN 211300
TAF EEKA 211300Z 2114/2120 34012KT 9999 BKN020 TEMPO 2114/2118 2000
    SHSN BKN004 BKN015CB BECMG 2115/2417 04008KT PROB40 TEMPO 2119/2120
    0700 FZFG OVC003=

METAR EEKA 211250Z 33011KT 9999 SCT021 M04/M08 Q1016=
Kärdla lennuväli
EEKE Kuressaare lennuväli
METAR EEKE 211250Z 00000KT 9999 FEW015 M05/M06 Q1016 R17/490095=
Kuressaare lennuväli
EEPU Pärnu lennuväli
METAR EEPU 211250Z 35003KT CAVOK M07/M10 Q1015=
Pärnu lennuväli
EETU Tartu lennuväli
METAR EETU 211320Z 27005KT CAVOK M10/M13 Q1014=
Tartu lennuväli
EEEI Ämari lennuväli
METAR EEEI 211250Z 31003KT 9999 -SN SCT017 M08/M12 Q1015 R24/450195 NOSIG=
Ämari lennuväli